Terminal Aerodrome Forecast
Issued by NWS Charleston, WV

Home | Current Version | Previous Version | Text Only | Print | Product List | Glossary On
Versions: 1 2 3 4 5 6 7 8 9 10 11 12 13 14 15 16 17 18 19 20 21 22 23 24 25 26 27
000
FTUS41 KRLX 010900 AAC
TAFPKB
TAF AMD
KPKB 010901Z 0109/0206 19003KT 4SM -SN BR BKN016 OVC045
     FM011500 VRB03KT 4SM -RASN BR OVC025
     FM011600 14004KT 5SM -RA BR OVC025=

USA.gov is the U.S. government's official web portal to all federal, state and local government web resources and services.